createdAt,value
2018-07-28T00:00:51.596Z,88.46
2018-07-28T00:03:20.519Z,87.72
2018-07-28T00:05:49.455Z,88.12
2018-07-28T00:08:18.416Z,87.54
2018-07-28T00:10:47.377Z,87.80
2018-07-28T00:13:16.361Z,88.67
2018-07-28T00:15:45.295Z,88.24
2018-07-28T00:18:14.240Z,88.20
2018-07-28T00:20:43.135Z,88.79
2018-07-28T00:23:12.365Z,89.58
2018-07-28T00:25:46.703Z,89.25
2018-07-28T00:28:15.672Z,90.07
2018-07-28T00:30:44.596Z,89.70
2018-07-28T00:33:13.522Z,89.69
2018-07-28T00:35:42.420Z,91.01
2018-07-28T00:38:11.440Z,91.34
2018-07-28T00:40:40.347Z,91.09
2018-07-28T00:43:09.274Z,90.44
2018-07-28T00:45:38.186Z,89.68
2018-07-28T00:48:07.155Z,90.36
2018-07-28T00:50:36.159Z,89.87
2018-07-28T00:53:05.396Z,90.93
2018-07-28T00:55:34.297Z,92.19
2018-07-28T00:58:03.373Z,92.07
2018-07-28T01:00:32.296Z,92.02
2018-07-28T01:03:01.238Z,91.96
2018-07-28T01:05:30.180Z,91.37
2018-07-28T01:07:59.147Z,92.46
2018-07-28T01:10:28.083Z,91.97
2018-07-28T01:12:57.003Z,92.65
2018-07-28T01:15:25.928Z,91.82
2018-07-28T01:17:54.868Z,92.50
2018-07-28T01:20:23.804Z,91.66
2018-07-28T01:22:52.718Z,92.46
2018-07-28T01:25:21.650Z,92.49
2018-07-28T01:27:50.575Z,92.68
2018-07-28T01:30:23.947Z,92.69
2018-07-28T01:32:52.946Z,92.32
2018-07-28T01:35:21.849Z,92.84
2018-07-28T01:37:50.748Z,92.45
2018-07-28T01:40:19.675Z,92.27
2018-07-28T01:42:48.733Z,92.93
2018-07-28T01:45:17.834Z,92.82
2018-07-28T01:47:46.735Z,92.90
2018-07-28T01:50:15.640Z,93.54
2018-07-28T01:52:44.551Z,92.96
2018-07-28T01:55:13.464Z,93.66
2018-07-28T01:57:42.376Z,93.79
2018-07-28T02:00:11.487Z,93.97
2018-07-28T02:02:40.398Z,94.24
2018-07-28T02:05:10.202Z,93.69
2018-07-28T02:07:39.302Z,93.48
2018-07-28T02:10:08.734Z,94.17
2018-07-28T02:12:37.868Z,93.81
2018-07-28T02:15:07.583Z,93.43
2018-07-28T02:17:36.567Z,93.93
2018-07-28T02:20:06.392Z,93.46
2018-07-28T02:22:35.314Z,93.24
2018-07-28T02:25:06.120Z,94.39
2018-07-28T02:27:35.088Z,93.79
2018-07-28T02:30:04.812Z,93.93
2018-07-28T02:32:33.932Z,94.35
2018-07-28T02:35:02.849Z,94.77
2018-07-28T02:37:31.785Z,95.21
2018-07-28T02:40:00.801Z,95.11
2018-07-28T02:42:29.765Z,94.52
2018-07-28T02:44:58.717Z,94.61
2018-07-28T02:47:27.662Z,94.32
2018-07-28T02:49:56.552Z,94.53
2018-07-28T02:52:25.480Z,95.35
2018-07-28T02:54:54.402Z,95.42
2018-07-28T02:57:23.319Z,95.36
2018-07-28T02:59:52.635Z,95.77
2018-07-28T03:02:21.528Z,95.42
2018-07-28T03:04:50.472Z,96.14
2018-07-28T03:07:19.357Z,96.36
2018-07-28T03:09:48.279Z,96.18
2018-07-28T03:12:17.166Z,96.16
2018-07-28T03:14:46.085Z,96.71
2018-07-28T03:17:14.994Z,96.80
2018-07-28T03:19:43.941Z,96.63
2018-07-28T03:22:12.859Z,96.95
2018-07-28T03:24:41.774Z,95.99
2018-07-28T03:27:10.726Z,95.59
2018-07-28T03:29:39.642Z,96.27
2018-07-28T03:32:08.556Z,96.00
2018-07-28T03:34:37.510Z,95.92
2018-07-28T03:37:06.548Z,96.44
2018-07-28T03:39:35.470Z,96.59
2018-07-28T03:42:04.409Z,95.86
2018-07-28T03:44:33.371Z,96.20
2018-07-28T03:47:02.442Z,95.16
2018-07-28T03:49:31.342Z,95.74
2018-07-28T03:52:00.270Z,94.83
2018-07-28T03:54:29.230Z,94.95
2018-07-28T03:56:58.168Z,94.79
2018-07-28T03:59:27.082Z,95.16
2018-07-28T04:01:56.000Z,94.33
2018-07-28T04:04:24.934Z,95.24
2018-07-28T04:06:53.846Z,94.83
2018-07-28T04:09:22.760Z,94.05
2018-07-28T04:11:51.667Z,94.28
2018-07-28T04:14:20.621Z,93.98
2018-07-28T04:16:49.528Z,94.92
2018-07-28T04:19:18.471Z,94.44
2018-07-28T04:21:47.392Z,94.54
2018-07-28T04:24:16.349Z,94.52
2018-07-28T04:26:45.228Z,93.66
2018-07-28T04:29:14.160Z,94.19
2018-07-28T04:31:43.165Z,93.59
2018-07-28T04:34:12.106Z,92.60
2018-07-28T04:36:41.012Z,92.72
2018-07-28T04:39:12.248Z,92.44
2018-07-28T04:41:42.065Z,92.12
2018-07-28T04:44:11.591Z,91.79
2018-07-28T04:46:40.539Z,92.14
2018-07-28T04:49:09.584Z,91.63
2018-07-28T04:51:38.520Z,90.74
2018-07-28T04:54:07.411Z,90.75
2018-07-28T04:56:36.336Z,90.08
2018-07-28T04:59:05.294Z,90.51
2018-07-28T05:01:34.251Z,89.77
2018-07-28T05:04:03.167Z,89.96
2018-07-28T05:06:32.087Z,89.62
2018-07-28T05:09:01.027Z,89.32
2018-07-28T05:11:29.947Z,89.01
2018-07-28T05:13:58.884Z,88.67
2018-07-28T05:16:27.789Z,88.12
2018-07-28T05:18:56.724Z,88.37
2018-07-28T05:21:25.659Z,87.39
2018-07-28T05:23:54.551Z,87.30
2018-07-28T05:26:23.449Z,86.45
2018-07-28T05:28:52.340Z,87.50
2018-07-28T05:31:23.264Z,86.91
2018-07-28T05:33:52.694Z,86.73
2018-07-28T05:36:21.676Z,85.98
2018-07-28T05:38:50.659Z,85.94
2018-07-28T05:41:19.820Z,85.78
2018-07-28T05:43:48.713Z,84.53
2018-07-28T05:46:17.620Z,84.74
2018-07-28T05:48:46.577Z,82.75
2018-07-28T05:51:15.491Z,82.37
2018-07-28T05:53:44.550Z,82.61
2018-07-28T05:56:13.497Z,81.63
2018-07-28T05:58:42.804Z,80.57
2018-07-28T06:01:11.795Z,78.99
2018-07-28T06:03:40.701Z,75.67
2018-07-28T06:06:09.617Z,69.81
2018-07-28T06:08:38.555Z,64.64
2018-07-28T06:11:07.507Z,61.33
2018-07-28T06:13:36.434Z,57.16
2018-07-28T06:16:05.569Z,55.06
2018-07-28T06:18:34.474Z,54.10
2018-07-28T06:21:03.421Z,51.14
2018-07-28T06:23:32.343Z,51.40
2018-07-28T06:26:01.387Z,49.15
2018-07-28T06:28:30.267Z,49.89
2018-07-28T06:30:59.295Z,49.84
2018-07-28T06:33:28.219Z,50.02
2018-07-28T06:35:57.178Z,49.90
2018-07-28T06:38:26.072Z,48.90
2018-07-28T06:40:55.106Z,48.43
2018-07-28T06:43:24.059Z,48.17
2018-07-28T06:45:53.022Z,47.23
2018-07-28T06:48:21.940Z,45.70
2018-07-28T06:50:50.935Z,46.42
2018-07-28T06:53:19.876Z,44.74
2018-07-28T06:55:48.816Z,46.61
2018-07-28T06:58:17.741Z,46.86
2018-07-28T07:00:46.728Z,47.71
2018-07-28T07:03:15.644Z,46.51
2018-07-28T07:05:45.968Z,43.96
2018-07-28T07:08:14.859Z,42.33
2018-07-28T07:10:43.852Z,43.64
2018-07-28T07:13:12.846Z,41.46
2018-07-28T07:15:42.205Z,44.16
2018-07-28T07:18:11.211Z,43.64
2018-07-28T07:20:40.149Z,43.15
2018-07-28T07:23:09.113Z,40.55
2018-07-28T07:25:37.983Z,41.03
2018-07-28T07:28:06.897Z,43.36
2018-07-28T07:30:35.835Z,43.15
2018-07-28T07:33:04.823Z,42.06
2018-07-28T07:35:33.728Z,43.52
2018-07-28T07:38:03.668Z,43.43
2018-07-28T07:40:32.577Z,42.00
2018-07-28T07:43:01.496Z,43.46
2018-07-28T07:45:30.525Z,41.97
2018-07-28T07:47:59.459Z,43.44
2018-07-28T07:50:28.384Z,41.48
2018-07-28T07:52:57.275Z,42.30
2018-07-28T07:55:26.610Z,40.95
2018-07-28T07:57:55.516Z,41.92
2018-07-28T08:00:24.433Z,40.64
2018-07-28T08:02:53.362Z,41.00
2018-07-28T08:05:22.368Z,42.00
2018-07-28T08:07:51.266Z,42.43
2018-07-28T08:10:20.408Z,40.68
2018-07-28T08:12:49.358Z,41.19
2018-07-28T08:15:18.265Z,40.70
2018-07-28T08:17:47.166Z,40.58
2018-07-28T08:20:16.056Z,42.75
2018-07-28T08:22:44.948Z,41.29
2018-07-28T08:25:13.876Z,41.11
2018-07-28T08:27:42.794Z,38.72
2018-07-28T08:30:11.690Z,40.25
2018-07-28T08:32:40.596Z,38.43
2018-07-28T08:35:09.988Z,39.62
2018-07-28T08:37:39.015Z,39.19
2018-07-28T08:40:08.013Z,38.77
2018-07-28T08:42:36.880Z,38.97
2018-07-28T08:45:06.072Z,38.17
2018-07-28T08:47:35.033Z,36.85
2018-07-28T08:50:03.956Z,39.11
2018-07-28T08:52:32.847Z,37.90
2018-07-28T08:55:01.783Z,37.37
2018-07-28T08:57:30.687Z,38.31
2018-07-28T08:59:59.592Z,38.05
2018-07-28T09:02:28.492Z,37.80
2018-07-28T09:04:57.420Z,38.48
2018-07-28T09:07:26.354Z,38.20
2018-07-28T09:09:55.266Z,35.41
2018-07-28T09:12:24.210Z,36.55
2018-07-28T09:14:53.072Z,34.72
2018-07-28T09:17:22.044Z,34.99
2018-07-28T09:19:50.972Z,33.79
2018-07-28T09:22:19.929Z,33.88
2018-07-28T09:24:48.841Z,34.29
2018-07-28T09:27:17.756Z,34.46
2018-07-28T09:29:46.703Z,33.72
2018-07-28T09:32:15.611Z,34.42
2018-07-28T09:34:44.577Z,34.83
2018-07-28T09:37:13.473Z,35.64
2018-07-28T09:39:42.406Z,35.49
2018-07-28T09:42:11.301Z,35.04
2018-07-28T09:44:40.469Z,32.09
2018-07-28T09:47:09.385Z,32.42
2018-07-28T09:49:38.307Z,33.50
2018-07-28T09:52:07.404Z,34.94
2018-07-28T09:54:36.327Z,35.34
2018-07-28T09:57:05.252Z,33.58
2018-07-28T09:59:34.164Z,34.17
2018-07-28T10:02:03.076Z,31.99
2018-07-28T10:04:32.006Z,30.37
2018-07-28T10:07:00.926Z,32.38
2018-07-28T10:09:29.833Z,30.44
2018-07-28T10:11:58.737Z,30.74
2018-07-28T10:14:27.656Z,29.94
2018-07-28T10:16:56.575Z,29.39
2018-07-28T10:19:25.501Z,31.39
2018-07-28T10:21:54.450Z,32.82
2018-07-28T10:24:23.370Z,30.15
2018-07-28T10:26:52.356Z,32.45
2018-07-28T10:29:21.207Z,30.11
2018-07-28T10:31:50.124Z,31.40
2018-07-28T10:34:19.206Z,31.65
2018-07-28T10:36:48.157Z,32.38
2018-07-28T10:39:17.028Z,33.87
2018-07-28T10:41:46.173Z,35.42
2018-07-28T10:44:15.116Z,35.17
2018-07-28T10:46:44.088Z,34.32
2018-07-28T10:49:13.055Z,34.87
2018-07-28T10:51:41.992Z,34.57
2018-07-28T10:54:10.904Z,35.48
2018-07-28T10:56:39.824Z,35.78
2018-07-28T10:59:08.748Z,39.95
2018-07-28T11:01:37.668Z,37.99
2018-07-28T11:04:06.572Z,39.83
2018-07-28T11:06:35.474Z,37.11
2018-07-28T11:09:06.499Z,37.67
2018-07-28T11:11:35.618Z,36.60
2018-07-28T11:14:06.569Z,37.12
2018-07-28T11:16:35.501Z,35.25
2018-07-28T11:19:04.550Z,36.31
2018-07-28T11:21:42.052Z,35.26
2018-07-28T11:27:19.840Z,37.40
2018-07-28T11:29:48.786Z,37.67
2018-07-28T11:32:29.075Z,37.36
2018-07-28T11:35:09.488Z,38.06
2018-07-28T11:37:46.674Z,38.39
2018-07-28T11:40:27.247Z,39.44
2018-07-28T11:43:07.915Z,40.99
2018-07-28T11:45:36.867Z,39.93
2018-07-28T11:48:05.912Z,40.07
2018-07-28T11:50:34.861Z,41.35
2018-07-28T11:53:03.784Z,40.88
2018-07-28T11:55:32.704Z,41.48
2018-07-28T11:58:01.648Z,41.23
2018-07-28T12:00:30.618Z,41.83
2018-07-28T12:02:59.600Z,41.31
2018-07-28T12:05:28.539Z,40.35
2018-07-28T12:07:57.489Z,41.04
2018-07-28T12:10:26.408Z,39.78
2018-07-28T12:12:55.389Z,39.84
2018-07-28T12:15:24.412Z,38.40
2018-07-28T12:17:53.319Z,37.05
2018-07-28T12:20:22.252Z,37.70
2018-07-28T12:22:51.171Z,37.89
2018-07-28T12:25:20.081Z,38.91
2018-07-28T12:27:48.995Z,39.72
2018-07-28T12:30:17.945Z,40.60
2018-07-28T12:32:46.845Z,40.99
2018-07-28T12:35:15.768Z,39.96
2018-07-28T12:37:44.720Z,41.89
2018-07-28T12:40:13.685Z,41.41
2018-07-28T12:42:42.616Z,42.68
2018-07-28T12:45:11.596Z,41.87
2018-07-28T12:47:40.520Z,42.70
2018-07-28T12:50:09.709Z,42.98
2018-07-28T12:52:38.653Z,44.92
2018-07-28T12:55:07.577Z,47.62
2018-07-28T12:57:36.464Z,47.71
2018-07-28T13:00:05.565Z,49.39
2018-07-28T13:02:34.488Z,49.63
2018-07-28T13:05:03.462Z,48.15
2018-07-28T13:07:32.432Z,48.51
2018-07-28T13:10:01.663Z,48.09
2018-07-28T13:12:30.663Z,49.04
2018-07-28T13:14:59.526Z,49.67
2018-07-28T13:17:28.495Z,49.81
2018-07-28T13:19:57.420Z,50.10
2018-07-28T13:22:26.375Z,49.38
2018-07-28T13:24:55.325Z,49.95
2018-07-28T13:27:24.272Z,49.75
2018-07-28T13:29:53.183Z,51.47
2018-07-28T13:32:22.107Z,51.31
2018-07-28T13:34:51.068Z,50.83
2018-07-28T13:37:19.966Z,50.17
2018-07-28T13:39:48.998Z,45.96
2018-07-28T13:42:17.943Z,44.02
2018-07-28T13:44:46.872Z,43.48
2018-07-28T13:47:16.503Z,41.50
2018-07-28T13:49:45.457Z,41.79
2018-07-28T13:52:14.536Z,41.69
2018-07-28T13:54:43.544Z,40.48
2018-07-28T13:57:12.556Z,39.09
2018-07-28T13:59:41.469Z,38.29
2018-07-28T14:02:10.392Z,39.77
2018-07-28T14:04:39.421Z,42.51
2018-07-28T14:07:08.368Z,43.92
2018-07-28T14:09:37.292Z,46.23
2018-07-28T14:12:06.288Z,44.23
2018-07-28T14:14:35.403Z,41.44
2018-07-28T14:17:04.355Z,37.34
2018-07-28T14:19:33.272Z,35.42
2018-07-28T14:22:02.203Z,35.38
2018-07-28T14:24:31.236Z,31.89
2018-07-28T14:27:00.172Z,31.99
2018-07-28T14:29:29.111Z,27.45
2018-07-28T14:31:58.037Z,23.11
2018-07-28T14:34:27.043Z,25.23
2018-07-28T14:36:55.992Z,24.89
2018-07-28T14:39:24.915Z,25.89
2018-07-28T14:41:53.863Z,24.92
2018-07-28T14:44:22.905Z,24.63
2018-07-28T14:46:51.831Z,25.17
2018-07-28T14:49:21.056Z,24.84
2018-07-28T14:51:49.949Z,26.22
2018-07-28T14:54:18.884Z,26.19
2018-07-28T14:56:47.812Z,28.33
2018-07-28T14:59:16.719Z,28.94
2018-07-28T15:01:45.632Z,29.68
2018-07-28T15:04:14.583Z,29.78
2018-07-28T15:06:43.496Z,29.77
2018-07-28T15:09:12.494Z,30.05
2018-07-28T15:11:41.334Z,30.16
2018-07-28T15:14:10.360Z,29.76
2018-07-28T15:16:43.312Z,30.27
2018-07-28T15:19:12.237Z,30.33
2018-07-28T15:21:41.213Z,31.43
2018-07-28T15:24:10.127Z,31.58
2018-07-28T15:26:39.025Z,32.55
2018-07-28T15:29:07.933Z,32.35
2018-07-28T15:31:36.849Z,33.42
2018-07-28T15:34:05.927Z,33.94
2018-07-28T15:36:34.860Z,32.71
2018-07-28T15:39:05.296Z,32.58
2018-07-28T15:41:34.240Z,32.33
2018-07-28T15:44:03.292Z,31.89
2018-07-28T15:46:32.237Z,31.47
2018-07-28T15:49:01.195Z,29.86
2018-07-28T15:51:30.076Z,29.89
2018-07-28T15:53:58.975Z,29.88
2018-07-28T15:56:27.881Z,31.42
2018-07-28T15:58:56.804Z,33.29
2018-07-28T16:01:25.718Z,34.19
2018-07-28T16:03:54.620Z,35.79
2018-07-28T16:06:23.543Z,35.34
2018-07-28T16:08:52.468Z,37.42
2018-07-28T16:11:21.383Z,38.24
2018-07-28T16:13:50.292Z,37.40
2018-07-28T16:16:19.221Z,38.76
2018-07-28T16:18:48.443Z,38.27
2018-07-28T16:21:17.312Z,38.29
2018-07-28T16:23:46.256Z,38.51
2018-07-28T16:26:15.170Z,39.59
2018-07-28T16:28:44.055Z,39.36
2018-07-28T16:31:12.942Z,39.73
2018-07-28T16:33:41.856Z,38.92
2018-07-28T16:36:10.830Z,40.28
2018-07-28T16:38:39.758Z,40.56
2018-07-28T16:41:08.758Z,40.43
2018-07-28T16:43:39.010Z,40.20
2018-07-28T16:46:07.901Z,40.44
2018-07-28T16:48:36.839Z,40.88
2018-07-28T16:51:05.832Z,41.53
2018-07-28T16:53:35.291Z,41.98
2018-07-28T16:56:04.243Z,41.81
2018-07-28T16:58:33.095Z,42.42
2018-07-28T17:01:02.044Z,41.21
2018-07-28T17:03:30.992Z,42.27
2018-07-28T17:05:59.879Z,39.72
2018-07-28T17:08:28.825Z,38.26
2018-07-28T17:10:57.760Z,39.57
2018-07-28T17:13:31.078Z,39.80
2018-07-28T17:15:59.996Z,40.15
2018-07-28T17:18:28.919Z,40.97
2018-07-28T17:20:58.007Z,40.90
2018-07-28T17:23:27.064Z,40.48
2018-07-28T17:25:55.995Z,41.42
2018-07-28T17:28:24.948Z,41.96
2018-07-28T17:30:53.877Z,42.49
2018-07-28T17:33:22.791Z,43.14
2018-07-28T17:35:51.735Z,43.45
2018-07-28T17:38:21.200Z,43.29
2018-07-28T17:40:50.153Z,44.73
2018-07-28T17:43:19.304Z,44.28
2018-07-28T17:45:48.195Z,45.05
2018-07-28T17:48:17.147Z,45.14
2018-07-28T17:50:46.204Z,45.51
2018-07-28T17:53:20.641Z,45.75
2018-07-28T17:55:49.555Z,45.85
2018-07-28T17:58:18.549Z,45.99
2018-07-28T18:00:48.067Z,46.46
2018-07-28T18:03:17.064Z,46.00
2018-07-28T18:05:46.056Z,46.38
2018-07-28T18:08:14.966Z,46.33
2018-07-28T18:10:43.884Z,46.76
2018-07-28T18:13:12.946Z,47.09
2018-07-28T18:18:17.436Z,49.71
2018-07-28T18:20:46.372Z,50.21
2018-07-28T18:23:15.444Z,51.02
2018-07-28T18:25:44.347Z,53.28
2018-07-28T18:28:13.240Z,53.76
2018-07-28T18:30:42.196Z,55.15
2018-07-28T18:33:11.062Z,56.20
2018-07-28T18:35:39.966Z,56.55
2018-07-28T18:38:08.887Z,56.33
2018-07-28T18:40:37.805Z,57.31
2018-07-28T18:43:06.744Z,57.96
2018-07-28T18:45:35.660Z,58.35
2018-07-28T18:48:04.572Z,59.38
2018-07-28T18:50:33.502Z,60.50
2018-07-28T18:53:02.453Z,60.98
2018-07-28T18:55:31.386Z,60.41
2018-07-28T18:58:00.354Z,61.34
2018-07-28T19:00:29.623Z,61.20
2018-07-28T19:02:58.554Z,65.06
2018-07-28T19:05:27.530Z,66.54
2018-07-28T19:07:56.452Z,71.78
2018-07-28T19:10:25.364Z,71.99
2018-07-28T19:12:59.642Z,73.52
2018-07-28T19:15:28.589Z,75.03
2018-07-28T19:20:38.968Z,76.89
2018-07-28T19:23:13.235Z,76.00
2018-07-28T19:25:42.167Z,75.85
2018-07-28T19:28:16.465Z,75.73
2018-07-28T19:30:45.392Z,76.11
2018-07-28T19:33:14.374Z,77.06
2018-07-28T19:35:48.619Z,76.88
2018-07-28T19:38:17.504Z,77.66
2018-07-28T19:40:46.551Z,75.55
2018-07-28T19:43:15.426Z,75.02
2018-07-28T19:45:44.342Z,75.80
2018-07-28T19:48:13.257Z,77.31
2018-07-28T19:50:42.198Z,76.49
2018-07-28T19:53:11.110Z,77.91
2018-07-28T19:55:40.025Z,79.36
2018-07-28T19:58:08.928Z,80.75
2018-07-28T20:00:37.865Z,81.21
2018-07-28T20:03:06.836Z,81.54
2018-07-28T20:05:35.764Z,73.83
2018-07-28T20:08:05.048Z,77.04
2018-07-28T20:10:33.964Z,79.27
2018-07-28T20:13:03.108Z,82.64
2018-07-28T20:15:32.018Z,82.61
2018-07-28T20:18:01.318Z,81.96
2018-07-28T20:20:30.192Z,81.40
2018-07-28T20:22:59.135Z,80.79
2018-07-28T20:25:28.098Z,81.86
2018-07-28T20:27:57.061Z,81.36
2018-07-28T20:30:26.280Z,81.72
2018-07-28T20:32:55.165Z,79.77
2018-07-28T20:35:24.092Z,78.35
2018-07-28T20:37:53.023Z,77.65
2018-07-28T20:40:21.926Z,76.53
2018-07-28T20:42:50.890Z,76.70
2018-07-28T20:45:19.803Z,77.00
2018-07-28T20:47:48.730Z,75.42
2018-07-28T20:50:17.636Z,76.08
2018-07-28T20:52:46.564Z,75.44
2018-07-28T20:55:15.573Z,76.06
2018-07-28T20:57:44.483Z,75.41
2018-07-28T21:00:13.360Z,74.80
2018-07-28T21:02:42.262Z,74.91
2018-07-28T21:05:11.168Z,74.75
2018-07-28T21:07:40.241Z,74.35
2018-07-28T21:10:09.197Z,73.91
2018-07-28T21:12:38.051Z,73.94
2018-07-28T21:15:07.407Z,73.97
2018-07-28T21:17:36.643Z,72.99
2018-07-28T21:20:05.921Z,73.94
2018-07-28T21:22:34.939Z,73.23
2018-07-28T21:25:03.889Z,74.10
2018-07-28T21:27:32.799Z,74.17
2018-07-28T21:30:01.732Z,73.46
2018-07-28T21:32:30.740Z,73.16
2018-07-28T21:34:59.841Z,73.69
2018-07-28T21:37:28.741Z,73.30
2018-07-28T21:39:57.683Z,73.91
2018-07-28T21:42:26.629Z,73.58
2018-07-28T21:44:56.412Z,72.50
2018-07-28T21:47:25.487Z,73.67
2018-07-28T21:49:54.384Z,73.94
2018-07-28T21:52:23.457Z,73.81
2018-07-28T21:54:52.443Z,74.17
2018-07-28T21:57:21.391Z,75.28
2018-07-28T21:59:50.321Z,75.82
2018-07-28T22:02:19.228Z,73.99
2018-07-28T22:04:48.158Z,75.09
2018-07-28T22:07:17.049Z,75.00
2018-07-28T22:09:45.992Z,74.44
2018-07-28T22:12:14.908Z,74.22
2018-07-28T22:14:43.872Z,74.98
2018-07-28T22:17:12.812Z,75.14
2018-07-28T22:19:41.746Z,74.92
2018-07-28T22:22:10.659Z,74.32
2018-07-28T22:24:39.590Z,74.44
2018-07-28T22:27:08.519Z,74.65
2018-07-28T22:29:37.444Z,75.92
2018-07-28T22:32:06.385Z,76.00
2018-07-28T22:34:35.284Z,76.31
2018-07-28T22:37:04.205Z,77.19
2018-07-28T22:39:33.145Z,77.14
2018-07-28T22:42:02.082Z,77.12
2018-07-28T22:44:31.032Z,77.36
2018-07-28T22:47:00.148Z,77.34
2018-07-28T22:49:29.033Z,78.57
2018-07-28T22:51:58.064Z,79.66
2018-07-28T22:54:26.984Z,81.49
2018-07-28T22:56:55.890Z,82.21
2018-07-28T22:59:24.801Z,81.85
2018-07-28T23:01:53.705Z,81.96
2018-07-28T23:04:22.617Z,81.59
2018-07-28T23:06:51.513Z,81.59
2018-07-28T23:09:20.428Z,82.86
2018-07-28T23:11:49.319Z,82.60
2018-07-28T23:14:18.230Z,83.54
2018-07-28T23:16:47.200Z,84.19
2018-07-28T23:19:16.112Z,84.62
2018-07-28T23:21:45.004Z,84.63
2018-07-28T23:24:13.923Z,85.39
2018-07-28T23:26:42.840Z,85.36
2018-07-28T23:29:11.779Z,86.01
2018-07-28T23:31:40.705Z,86.88
2018-07-28T23:34:09.611Z,86.78
2018-07-28T23:36:38.549Z,87.17
2018-07-28T23:39:08.332Z,87.01
2018-07-28T23:41:37.534Z,86.99
2018-07-28T23:44:06.431Z,87.21
2018-07-28T23:46:35.595Z,88.26
2018-07-28T23:49:04.484Z,87.18
2018-07-28T23:51:33.398Z,86.45
2018-07-28T23:54:02.319Z,87.39
2018-07-28T23:56:31.223Z,87.86
2018-07-28T23:59:00.139Z,87.81
